Time;durP1;ratioP1;P1;durP2;ratioP2;P2;SDS_P1;SDS_P2;PMS_P1;PMS_P2;Temp;Humidity;BMP_temperature;BMP_pressure;BME280_temperature;BME280_humidity;BME280_pressure;Samples;Min_cycle;Max_cycle;Signal;HPM_P1;HPM_P2
2022/05/17 00:01:23;;;;;;;;;;;20.90;82.40;;;;;;4937226;29;20364;-61
2022/05/17 00:03:49;;;;;;;;;;;20.80;82.70;;;;;;4937334;29;20342;-62
2022/05/17 00:06:15;;;;;;;;;;;20.90;82.70;;;;;;4937423;29;19958;-61
2022/05/17 00:08:41;;;;;;;;;;;20.80;83.00;;;;;;4920279;29;19917;-60
2022/05/17 00:11:06;;;;;;;;;;;20.80;81.80;;;;;;4937107;29;20351;-62
2022/05/17 00:13:32;;;;;;;;;;;20.90;82.30;;;;;;4937058;29;19922;-59
2022/05/17 00:15:58;;;;;;;;;;;21.00;82.20;;;;;;4937326;29;20393;-59
2022/05/17 00:18:24;;;;;;;;;;;20.90;81.80;;;;;;4937414;29;20359;-60
2022/05/17 00:20:50;;;;;;;;;;;21.00;79.30;;;;;;4936610;29;19911;-63
2022/05/17 00:23:15;;;;;;;;;;;20.90;80.90;;;;;;4936781;29;19925;-60
2022/05/17 00:25:42;;;;;;;;;;;20.80;82.20;;;;;;4936899;29;19934;-59
2022/05/17 00:28:07;;;;;;;;;;;20.70;82.60;;;;;;4937116;29;20002;-61
2022/05/17 00:30:33;;;;;;;;;;;20.80;81.30;;;;;;4936844;29;19998;-61
2022/05/17 00:32:59;;;;;;;;;;;20.80;81.20;;;;;;4936685;29;20323;-60
2022/05/17 00:35:25;;;;;;;;;;;20.80;81.20;;;;;;4937026;29;19914;-59
2022/05/17 00:37:50;;;;;;;;;;;20.70;80.30;;;;;;4937166;29;19911;-60
2022/05/17 00:40:16;;;;;;;;;;;20.70;81.10;;;;;;4936529;29;19911;-61
2022/05/17 00:42:41;;;;;;;;;;;20.70;81.40;;;;;;4936869;29;19911;-60
2022/05/17 00:45:09;;;;;;;;;;;20.60;81.70;;;;;;4936902;29;19966;-60
2022/05/17 00:47:35;;;;;;;;;;;20.60;81.70;;;;;;4936751;29;20277;-61
2022/05/17 00:50:10;;;;;;;;;;;20.70;81.60;;;;;;4936842;29;20010;-62
2022/05/17 00:52:41;;;;;;;;;;;20.70;81.30;;;;;;4936549;29;19918;-61
2022/05/17 00:55:14;;;;;;;;;;;20.70;80.00;;;;;;4936592;29;19919;-61
2022/05/17 00:58:03;;;;;;;;;;;20.60;81.10;;;;;;4936544;29;19962;-61
2022/05/17 01:00:30;;;;;;;;;;;20.50;82.00;;;;;;4933520;29;19911;-61
2022/05/17 01:03:04;;;;;;;;;;;20.50;81.00;;;;;;4936464;29;19949;-62
2022/05/17 01:05:32;;;;;;;;;;;20.50;81.10;;;;;;4936399;29;20386;-61
2022/05/17 01:07:59;;;;;;;;;;;20.50;80.80;;;;;;4936449;29;19911;-60
2022/05/17 01:10:26;;;;;;;;;;;20.20;82.40;;;;;;4936534;29;19918;-60
2022/05/17 01:15:36;;;;;;;;;;;20.40;83.10;;;;;;4936297;29;19925;-60
2022/05/17 01:18:02;;;;;;;;;;;20.50;82.70;;;;;;4936400;29;19914;-60
2022/05/17 01:20:28;;;;;;;;;;;20.30;82.90;;;;;;4936386;29;19910;-60
2022/05/17 01:22:53;;;;;;;;;;;20.30;82.80;;;;;;4936493;29;19915;-61
2022/05/17 01:25:19;;;;;;;;;;;20.30;83.00;;;;;;4936227;29;19963;-62
2022/05/17 01:27:50;;;;;;;;;;;20.30;81.50;;;;;;4936908;29;19915;-61
2022/05/17 01:30:20;;;;;;;;;;;20.40;80.00;;;;;;4936391;29;20278;-59
2022/05/17 01:32:46;;;;;;;;;;;20.30;80.50;;;;;;4937036;28;20063;-59
2022/05/17 01:35:12;;;;;;;;;;;20.30;80.60;;;;;;4922982;29;19975;-60
2022/05/17 01:37:37;;;;;;;;;;;20.40;80.00;;;;;;4940239;29;19911;-60
2022/05/17 01:40:03;;;;;;;;;;;20.30;80.70;;;;;;4940117;29;19911;-60
2022/05/17 01:42:29;;;;;;;;;;;20.30;80.50;;;;;;4939859;29;19911;-60
2022/05/17 01:44:54;;;;;;;;;;;20.20;81.20;;;;;;4940001;29;19954;-60
2022/05/17 01:47:20;;;;;;;;;;;20.10;81.60;;;;;;4939999;29;19966;-60
2022/05/17 01:49:46;;;;;;;;;;;20.00;81.50;;;;;;4940029;29;19918;-60
2022/05/17 01:52:11;;;;;;;;;;;20.00;81.80;;;;;;4939599;29;20291;-60
2022/05/17 01:54:37;;;;;;;;;;;19.90;82.10;;;;;;4939723;29;19918;-61
2022/05/17 01:57:03;;;;;;;;;;;19.90;81.70;;;;;;4939630;29;20347;-60
2022/05/17 01:59:28;;;;;;;;;;;19.90;81.50;;;;;;4939522;29;19911;-61
2022/05/17 02:01:54;;;;;;;;;;;19.80;81.70;;;;;;4939646;29;20278;-61
2022/05/17 02:04:20;;;;;;;;;;;19.80;82.40;;;;;;4939469;29;20366;-61
2022/05/17 02:06:45;;;;;;;;;;;19.80;82.60;;;;;;4939369;29;19915;-60
2022/05/17 02:09:11;;;;;;;;;;;19.80;80.70;;;;;;4939459;29;19911;-59
2022/05/17 02:11:36;;;;;;;;;;;19.90;80.50;;;;;;4939068;29;19919;-60
2022/05/17 02:14:03;;;;;;;;;;;19.90;80.10;;;;;;4939341;29;19934;-60
2022/05/17 02:16:29;;;;;;;;;;;20.00;79.30;;;;;;4939281;29;19911;-61
2022/05/17 02:18:54;;;;;;;;;;;19.90;80.10;;;;;;4939333;29;20359;-60
2022/05/17 02:21:20;;;;;;;;;;;19.90;81.30;;;;;;4939484;29;19922;-60
2022/05/17 02:23:45;;;;;;;;;;;19.80;82.00;;;;;;4939278;29;20286;-60
2022/05/17 02:26:11;;;;;;;;;;;19.80;81.80;;;;;;4939149;29;19978;-60
2022/05/17 02:28:37;;;;;;;;;;;19.80;81.80;;;;;;4939016;29;19922;-61
2022/05/17 02:31:02;;;;;;;;;;;19.80;81.70;;;;;;4938925;29;19915;-60
2022/05/17 02:33:28;;;;;;;;;;;19.90;81.00;;;;;;4938979;29;19926;-60
2022/05/17 02:35:53;;;;;;;;;;;19.90;79.60;;;;;;4938981;29;19911;-60
2022/05/17 02:38:19;;;;;;;;;;;19.80;80.30;;;;;;4938984;29;19911;-60
2022/05/17 02:40:45;;;;;;;;;;;19.80;81.70;;;;;;4939181;29;20417;-60
2022/05/17 02:43:13;;;;;;;;;;;19.70;81.60;;;;;;4938971;29;19911;-62
2022/05/17 02:45:39;;;;;;;;;;;19.70;81.80;;;;;;4937716;29;19938;-60
2022/05/17 02:48:05;;;;;;;;;;;19.60;82.30;;;;;;4938977;29;20388;-61
2022/05/17 02:50:32;;;;;;;;;;;19.60;82.40;;;;;;4938769;29;20009;-60
2022/05/17 02:52:57;;;;;;;;;;;19.70;82.30;;;;;;4921723;29;20005;-60
2022/05/17 02:55:24;;;;;;;;;;;19.60;82.60;;;;;;4938726;29;19971;-61
2022/05/17 02:57:49;;;;;;;;;;;19.60;82.40;;;;;;4938736;29;19911;-60
2022/05/17 03:00:16;;;;;;;;;;;19.60;82.30;;;;;;4938539;29;20021;-61
2022/05/17 03:02:42;;;;;;;;;;;19.60;82.50;;;;;;4938524;29;19958;-60
2022/05/17 03:05:08;;;;;;;;;;;19.60;82.50;;;;;;4938507;29;19911;-59
2022/05/17 03:07:33;;;;;;;;;;;19.60;82.70;;;;;;4938591;29;19918;-60
2022/05/17 03:09:59;;;;;;;;;;;19.60;82.60;;;;;;4938361;29;20313;-60
2022/05/17 03:12:24;;;;;;;;;;;19.60;82.20;;;;;;4937938;29;19926;-60
2022/05/17 03:14:50;;;;;;;;;;;19.50;82.20;;;;;;4938559;29;19970;-60
2022/05/17 03:17:16;;;;;;;;;;;19.50;81.60;;;;;;4938419;29;19938;-61
2022/05/17 03:19:43;;;;;;;;;;;19.60;82.10;;;;;;4938322;29;20268;-60
2022/05/17 03:22:08;;;;;;;;;;;19.50;82.30;;;;;;4938093;29;19974;-61
2022/05/17 03:24:34;;;;;;;;;;;19.50;82.00;;;;;;4938063;29;20369;-61
2022/05/17 03:27:00;;;;;;;;;;;19.60;81.50;;;;;;4937737;29;19926;-61
2022/05/17 03:29:26;;;;;;;;;;;19.40;82.10;;;;;;4937963;29;19911;-59
2022/05/17 03:31:52;;;;;;;;;;;19.50;81.70;;;;;;4937841;29;20002;-60
2022/05/17 03:34:17;;;;;;;;;;;19.40;82.10;;;;;;4937906;29;19915;-60
2022/05/17 03:36:43;;;;;;;;;;;19.30;82.30;;;;;;4938047;29;19911;-62
2022/05/17 03:39:09;;;;;;;;;;;19.40;79.90;;;;;;4937686;29;19911;-61
2022/05/17 03:41:35;;;;;;;;;;;19.50;80.30;;;;;;4937921;29;19993;-62
2022/05/17 03:44:00;;;;;;;;;;;19.40;81.10;;;;;;4937677;29;20438;-62
2022/05/17 03:46:26;;;;;;;;;;;19.40;81.50;;;;;;4937854;29;20394;-60
2022/05/17 03:48:51;;;;;;;;;;;19.40;81.70;;;;;;4937644;29;20279;-61
2022/05/17 03:51:18;;;;;;;;;;;19.40;81.70;;;;;;4937607;29;20001;-60
2022/05/17 03:53:44;;;;;;;;;;;19.40;81.40;;;;;;4938236;29;20303;-61
2022/05/17 03:56:10;;;;;;;;;;;19.40;81.50;;;;;;4937535;29;19950;-61
2022/05/17 03:58:35;;;;;;;;;;;19.30;81.60;;;;;;4937286;29;19915;-60
2022/05/17 04:01:01;;;;;;;;;;;19.30;82.10;;;;;;4937612;29;20318;-60
2022/05/17 04:03:27;;;;;;;;;;;19.20;81.80;;;;;;4937537;29;19911;-60
2022/05/17 04:05:52;;;;;;;;;;;19.30;81.70;;;;;;4937517;29;19911;-61
2022/05/17 04:08:18;;;;;;;;;;;19.30;82.10;;;;;;4937278;29;19911;-62
2022/05/17 04:10:43;;;;;;;;;;;19.30;81.90;;;;;;4937187;29;19911;-61
2022/05/17 04:13:09;;;;;;;;;;;19.30;81.90;;;;;;4937021;29;20371;-61
2022/05/17 04:15:35;;;;;;;;;;;19.30;82.50;;;;;;4937313;29;19911;-61
2022/05/17 04:18:00;;;;;;;;;;;19.30;82.50;;;;;;4937220;29;20371;-59
2022/05/17 04:20:26;;;;;;;;;;;19.30;82.20;;;;;;4937275;29;20430;-61
2022/05/17 04:22:53;;;;;;;;;;;19.30;82.50;;;;;;4936851;29;19911;-59
2022/05/17 04:25:21;;;;;;;;;;;19.40;81.50;;;;;;4936869;29;19929;-61
2022/05/17 04:27:46;;;;;;;;;;;19.50;80.70;;;;;;4936941;29;19911;-61
2022/05/17 04:30:12;;;;;;;;;;;19.60;79.70;;;;;;4937140;29;19917;-61
2022/05/17 04:32:38;;;;;;;;;;;19.70;79.80;;;;;;4936795;29;20390;-59
2022/05/17 04:35:04;;;;;;;;;;;19.70;79.60;;;;;;4936937;29;19911;-59
2022/05/17 04:37:30;;;;;;;;;;;19.70;80.80;;;;;;4936916;29;19981;-60
2022/05/17 04:39:55;;;;;;;;;;;19.70;81.70;;;;;;4936921;29;20407;-61
2022/05/17 04:42:21;;;;;;;;;;;19.70;82.00;;;;;;4936753;29;20279;-61
2022/05/17 04:44:47;;;;;;;;;;;19.80;82.80;;;;;;4936857;29;19911;-61
2022/05/17 04:47:12;;;;;;;;;;;19.80;82.00;;;;;;4936838;29;20389;-61
2022/05/17 04:49:38;;;;;;;;;;;19.80;82.90;;;;;;4936630;29;19910;-60
2022/05/17 04:52:06;;;;;;;;;;;19.80;82.20;;;;;;4936407;29;19919;-61
2022/05/17 04:54:32;;;;;;;;;;;19.90;82.80;;;;;;4936353;29;20367;-60
2022/05/17 04:56:58;;;;;;;;;;;19.90;82.70;;;;;;4936658;29;20005;-61
2022/05/17 04:59:23;;;;;;;;;;;20.00;80.40;;;;;;4919444;29;20351;-60
2022/05/17 05:01:49;;;;;;;;;;;20.10;79.50;;;;;;4936400;29;19954;-60
2022/05/17 05:04:16;;;;;;;;;;;20.20;81.50;;;;;;4936680;29;19911;-59
2022/05/17 05:06:41;;;;;;;;;;;20.30;80.10;;;;;;4936255;29;20378;-59
2022/05/17 05:09:07;;;;;;;;;;;20.40;78.70;;;;;;4935859;29;19918;-60
2022/05/17 05:11:34;;;;;;;;;;;20.40;79.60;;;;;;4936000;29;19910;-60
2022/05/17 05:13:59;;;;;;;;;;;20.50;78.50;;;;;;4936236;29;19918;-62
2022/05/17 05:16:25;;;;;;;;;;;20.60;77.40;;;;;;4936455;29;19914;-60
2022/05/17 05:18:51;;;;;;;;;;;20.70;77.00;;;;;;4936108;29;19918;-62
2022/05/17 05:21:16;;;;;;;;;;;20.80;77.10;;;;;;4936281;29;19911;-60
2022/05/17 05:23:43;;;;;;;;;;;20.80;76.80;;;;;;4936230;29;19918;-56
2022/05/17 05:26:10;;;;;;;;;;;20.90;75.90;;;;;;4936156;29;19981;-57
2022/05/17 05:28:35;;;;;;;;;;;21.20;76.20;;;;;;4936065;29;19922;-56
2022/05/17 05:31:01;;;;;;;;;;;21.40;75.50;;;;;;4936213;29;19914;-56
2022/05/17 05:33:29;;;;;;;;;;;21.50;74.40;;;;;;4936076;29;20026;-55
2022/05/17 05:35:54;;;;;;;;;;;21.60;73.10;;;;;;4936538;29;20370;-55
2022/05/17 05:38:20;;;;;;;;;;;21.70;74.80;;;;;;4936112;29;20009;-55
2022/05/17 05:40:46;;;;;;;;;;;21.90;75.40;;;;;;4936064;29;19915;-56
2022/05/17 05:43:12;;;;;;;;;;;21.90;73.20;;;;;;4936218;29;19918;-55
2022/05/17 05:45:37;;;;;;;;;;;22.00;73.50;;;;;;4936178;29;19911;-55
2022/05/17 05:48:03;;;;;;;;;;;22.00;73.60;;;;;;4936014;29;20282;-56
2022/05/17 05:50:29;;;;;;;;;;;22.10;72.50;;;;;;4936168;29;19911;-56
2022/05/17 05:53:08;;;;;;;;;;;22.40;71.60;;;;;;4935756;29;19923;-57
2022/05/17 05:55:34;;;;;;;;;;;22.60;70.90;;;;;;4935986;29;19918;-60
2022/05/17 05:58:00;;;;;;;;;;;22.90;70.10;;;;;;4936117;29;19997;-59
2022/05/17 06:00:26;;;;;;;;;;;23.20;69.40;;;;;;4936036;29;20006;-58
2022/05/17 06:02:51;;;;;;;;;;;23.40;68.50;;;;;;4935986;29;20002;-57
2022/05/17 06:05:18;;;;;;;;;;;23.60;68.20;;;;;;4935756;29;19929;-57
2022/05/17 06:07:44;;;;;;;;;;;23.70;67.50;;;;;;4935808;29;19954;-58
2022/05/17 06:10:10;;;;;;;;;;;23.80;66.40;;;;;;4935929;29;19997;-58
2022/05/17 06:12:36;;;;;;;;;;;23.80;66.00;;;;;;4935739;29;19962;-56
2022/05/17 06:15:01;;;;;;;;;;;23.80;66.40;;;;;;4935973;29;19979;-59
2022/05/17 06:17:29;;;;;;;;;;;23.80;66.70;;;;;;4935931;29;19915;-59
2022/05/17 06:19:56;;;;;;;;;;;23.70;67.10;;;;;;4936995;29;19911;-58
2022/05/17 06:22:21;;;;;;;;;;;23.50;66.90;;;;;;4953549;29;20369;-58
2022/05/17 06:24:47;;;;;;;;;;;23.40;67.70;;;;;;4939251;29;19954;-57
2022/05/17 06:27:12;;;;;;;;;;;23.40;68.00;;;;;;4939172;29;20367;-56
2022/05/17 06:29:38;;;;;;;;;;;23.50;67.90;;;;;;4939046;29;19949;-58
2022/05/17 06:32:05;;;;;;;;;;;23.60;67.60;;;;;;4938595;29;19915;-57
2022/05/17 06:34:30;;;;;;;;;;;23.70;67.40;;;;;;4938817;29;19918;-58
2022/05/17 06:36:56;;;;;;;;;;;23.80;67.30;;;;;;4938766;29;19911;-57
2022/05/17 06:39:22;;;;;;;;;;;23.90;66.50;;;;;;4939157;29;19936;-57
2022/05/17 06:41:47;;;;;;;;;;;24.00;66.20;;;;;;4938790;29;19965;-57
2022/05/17 06:44:13;;;;;;;;;;;24.10;65.70;;;;;;4938914;29;19946;-57
2022/05/17 06:46:38;;;;;;;;;;;24.30;65.00;;;;;;4939083;29;19911;-58
2022/05/17 06:49:04;;;;;;;;;;;24.40;64.50;;;;;;4938430;29;20382;-57
2022/05/17 06:51:31;;;;;;;;;;;24.50;63.70;;;;;;4938322;29;19957;-59
2022/05/17 06:53:56;;;;;;;;;;;24.60;64.20;;;;;;4938698;29;19915;-58
2022/05/17 06:56:22;;;;;;;;;;;24.60;64.10;;;;;;4939169;29;19918;-59
2022/05/17 06:58:47;;;;;;;;;;;24.60;64.10;;;;;;4938452;29;19910;-59
2022/05/17 07:01:13;;;;;;;;;;;24.50;64.50;;;;;;4938480;29;20283;-60
2022/05/17 07:03:39;;;;;;;;;;;24.40;64.60;;;;;;4938629;29;20006;-59
2022/05/17 07:06:04;;;;;;;;;;;24.40;65.50;;;;;;4938411;29;19919;-61
2022/05/17 07:08:30;;;;;;;;;;;24.30;65.10;;;;;;4946806;29;19915;-62
2022/05/17 07:13:39;;;;;;;;;;;24.30;66.20;;;;;;4948099;29;20274;-60
2022/05/17 07:16:05;;;;;;;;;;;24.30;66.70;;;;;;4947078;29;19915;-61
2022/05/17 07:18:31;;;;;;;;;;;24.30;66.40;;;;;;4946263;29;19910;-61
2022/05/17 07:20:58;;;;;;;;;;;24.30;66.80;;;;;;4942852;29;19920;-60
2022/05/17 07:23:24;;;;;;;;;;;24.20;67.40;;;;;;4945217;29;19958;-60
2022/05/17 07:25:50;;;;;;;;;;;24.20;67.40;;;;;;4947795;29;19926;-60
2022/05/17 07:28:19;;;;;;;;;;;24.20;67.20;;;;;;4946173;29;20363;-59
2022/05/17 07:30:46;;;;;;;;;;;23.70;67.30;;;;;;4946425;29;19910;-66
2022/05/17 07:33:11;;;;;;;;;;;23.60;68.40;;;;;;4948005;29;19940;-63
2022/05/17 07:35:37;;;;;;;;;;;23.70;68.50;;;;;;4949463;29;20009;-67
2022/05/17 07:38:04;;;;;;;;;;;23.80;69.00;;;;;;4956977;29;20366;-65
2022/05/17 07:40:30;;;;;;;;;;;23.80;69.00;;;;;;4956940;29;19957;-64
2022/05/17 07:42:56;;;;;;;;;;;23.80;68.70;;;;;;4950793;29;20039;-63
2022/05/17 07:45:21;;;;;;;;;;;23.80;68.60;;;;;;4945111;29;19911;-67
2022/05/17 07:47:47;;;;;;;;;;;23.90;68.40;;;;;;4929153;29;19919;-63
2022/05/17 07:50:13;;;;;;;;;;;23.90;68.40;;;;;;4946268;29;20382;-63
2022/05/17 07:52:38;;;;;;;;;;;23.70;67.90;;;;;;4947536;29;19925;-64
2022/05/17 07:55:04;;;;;;;;;;;23.70;68.40;;;;;;4945019;29;20009;-62
2022/05/17 07:57:30;;;;;;;;;;;23.80;68.50;;;;;;4929376;29;19911;-63
2022/05/17 07:59:55;;;;;;;;;;;23.80;67.80;;;;;;4936740;29;20378;-66
2022/05/17 08:02:21;;;;;;;;;;;23.80;67.90;;;;;;4956160;29;19958;-63
2022/05/17 08:04:47;;;;;;;;;;;24.00;67.50;;;;;;4956722;29;19911;-68
2022/05/17 08:07:12;;;;;;;;;;;24.10;67.10;;;;;;4953395;29;20386;-71
2022/05/17 08:09:38;;;;;;;;;;;24.30;66.90;;;;;;4945465;29;19910;-66
2022/05/17 08:12:06;;;;;;;;;;;24.20;66.50;;;;;;4947259;29;19926;-63
2022/05/17 08:14:36;;;;;;;;;;;24.20;66.00;;;;;;4945822;29;19918;-63
2022/05/17 08:17:02;;;;;;;;;;;24.30;65.90;;;;;;4947513;29;20347;-65
2022/05/17 08:19:28;;;;;;;;;;;24.40;65.80;;;;;;4952887;29;19919;-68
2022/05/17 08:21:54;;;;;;;;;;;24.50;66.20;;;;;;4949671;29;19911;-63
2022/05/17 08:24:20;;;;;;;;;;;24.60;65.30;;;;;;4946416;29;20295;-65
2022/05/17 08:29:29;;;;;;;;;;;24.90;65.60;;;;;;4946200;29;19925;-69
2022/05/17 08:34:39;;;;;;;;;;;24.60;65.50;;;;;;4943780;29;19933;-65
2022/05/17 08:37:04;;;;;;;;;;;24.80;64.90;;;;;;4945634;29;19910;-64
2022/05/17 08:39:31;;;;;;;;;;;25.00;64.30;;;;;;4946772;29;19915;-65
2022/05/17 08:42:02;;;;;;;;;;;25.00;63.80;;;;;;4944471;28;19915;-66
2022/05/17 08:44:46;;;;;;;;;;;25.20;63.60;;;;;;4944578;29;19911;-70
2022/05/17 08:47:17;;;;;;;;;;;25.40;63.20;;;;;;4946152;29;19925;-71
2022/05/17 08:50:03;;;;;;;;;;;25.40;62.30;;;;;;4944019;29;19911;-61
2022/05/17 08:52:29;;;;;;;;;;;25.40;62.70;;;;;;4945793;29;19953;-71
2022/05/17 08:54:58;;;;;;;;;;;25.20;63.30;;;;;;4946487;29;19917;-80
2022/05/17 08:57:24;;;;;;;;;;;25.30;63.40;;;;;;4944210;29;20278;-68
2022/05/17 08:59:49;;;;;;;;;;;25.30;63.80;;;;;;4944235;29;19920;-78
2022/05/17 09:02:17;;;;;;;;;;;25.40;63.50;;;;;;4940778;29;19966;-73
2022/05/17 09:05:02;;;;;;;;;;;25.30;63.20;;;;;;4951476;29;19917;-73
2022/05/17 09:07:29;;;;;;;;;;;25.30;62.70;;;;;;4950847;29;19918;-73
2022/05/17 09:09:54;;;;;;;;;;;25.30;63.00;;;;;;4948791;29;19973;-68
2022/05/17 09:12:33;;;;;;;;;;;25.40;62.80;;;;;;4949631;29;19922;-69
2022/05/17 09:15:00;;;;;;;;;;;25.40;62.00;;;;;;4945495;29;19917;-69
2022/05/17 09:17:28;;;;;;;;;;;25.40;62.00;;;;;;4938425;29;19930;-71
2022/05/17 09:19:54;;;;;;;;;;;25.50;62.20;;;;;;4937206;29;19967;-72
2022/05/17 09:22:20;;;;;;;;;;;25.50;62.10;;;;;;4936196;29;19918;-70
2022/05/17 09:24:49;;;;;;;;;;;25.50;61.80;;;;;;4934872;29;19919;-69
2022/05/17 09:27:23;;;;;;;;;;;25.40;61.60;;;;;;4936432;29;19954;-69
2022/05/17 09:29:50;;;;;;;;;;;25.50;60.50;;;;;;4936223;29;19918;-73
2022/05/17 09:32:26;;;;;;;;;;;25.40;61.30;;;;;;4936408;29;19994;-73
2022/05/17 09:34:59;;;;;;;;;;;25.40;61.30;;;;;;4936514;29;19959;-73
2022/05/17 09:37:30;;;;;;;;;;;25.40;60.40;;;;;;4936204;29;19950;-74
2022/05/17 09:39:55;;;;;;;;;;;25.40;60.40;;;;;;4936478;29;19954;-73
2022/05/17 09:42:27;;;;;;;;;;;25.40;61.00;;;;;;4935765;29;20315;-69
2022/05/17 09:44:54;;;;;;;;;;;25.40;61.50;;;;;;4936170;29;19966;-71
2022/05/17 09:47:27;;;;;;;;;;;25.40;61.60;;;;;;4935874;29;20077;-71
2022/05/17 09:52:44;;;;;;;;;;;25.40;61.40;;;;;;4936256;29;19985;-72
2022/05/17 09:55:15;;;;;;;;;;;25.30;61.20;;;;;;4938564;29;20267;-72
2022/05/17 09:57:54;;;;;;;;;;;25.30;62.00;;;;;;4939581;29;19911;-69
2022/05/17 10:00:31;;;;;;;;;;;25.40;62.00;;;;;;4939522;29;19911;-71
2022/05/17 10:03:00;;;;;;;;;;;25.40;61.80;;;;;;4939450;29;19966;-72
2022/05/17 10:05:25;;;;;;;;;;;25.50;61.70;;;;;;4939353;29;20401;-70
2022/05/17 10:07:59;;;;;;;;;;;25.60;62.70;;;;;;4939838;29;19911;-71
2022/05/17 10:10:27;;;;;;;;;;;25.50;62.00;;;;;;4939448;29;19915;-70
2022/05/17 10:12:56;;;;;;;;;;;25.50;61.80;;;;;;4937129;29;20034;-70
2022/05/17 10:15:22;;;;;;;;;;;25.50;61.00;;;;;;4937981;29;19985;-69
2022/05/17 10:17:51;;;;;;;;;;;25.60;61.30;;;;;;4925202;29;19954;-70
2022/05/17 10:20:26;;;;;;;;;;;25.60;62.10;;;;;;4937726;29;19911;-71
2022/05/17 10:22:55;;;;;;;;;;;25.60;61.70;;;;;;4937463;29;19910;-70
2022/05/17 10:25:23;;;;;;;;;;;25.60;61.50;;;;;;4937850;29;19918;-71
2022/05/17 10:27:52;;;;;;;;;;;25.60;61.30;;;;;;4937488;29;19922;-70
2022/05/17 10:30:26;;;;;;;;;;;25.60;60.30;;;;;;4936033;29;20058;-70
2022/05/17 10:32:57;;;;;;;;;;;25.60;61.00;;;;;;4936508;29;19919;-71
2022/05/17 10:35:26;;;;;;;;;;;25.60;61.40;;;;;;4945155;29;19961;-69
2022/05/17 10:38:02;;;;;;;;;;;25.60;59.40;;;;;;4944688;29;20287;-74
2022/05/17 10:40:33;;;;;;;;;;;25.60;59.70;;;;;;4946941;29;20013;-72
2022/05/17 10:42:59;;;;;;;;;;;25.70;58.80;;;;;;4947525;29;19918;-74
2022/05/17 10:45:33;;;;;;;;;;;25.60;57.30;;;;;;4948984;29;20278;-72
2022/05/17 10:48:18;;;;;;;;;;;25.70;57.10;;;;;;4943731;29;19918;-73
2022/05/17 10:50:57;;;;;;;;;;;25.70;58.10;;;;;;4920425;29;20026;-69
2022/05/17 10:53:41;;;;;;;;;;;25.70;57.70;;;;;;4937327;29;20263;-71
2022/05/17 10:56:10;;;;;;;;;;;25.80;57.30;;;;;;4937688;29;19911;-73
2022/05/17 10:58:44;;;;;;;;;;;25.80;56.80;;;;;;4937826;29;19918;-71
2022/05/17 11:01:22;;;;;;;;;;;25.80;56.70;;;;;;4937427;29;19958;-68
2022/05/17 11:04:07;;;;;;;;;;;25.80;56.60;;;;;;4937658;29;19967;-73
2022/05/17 11:06:36;;;;;;;;;;;25.70;58.20;;;;;;4919775;29;19910;-75
2022/05/17 11:09:04;;;;;;;;;;;25.80;58.10;;;;;;4937822;29;19997;-76
2022/05/17 11:11:48;;;;;;;;;;;25.90;58.80;;;;;;4920410;29;19910;-71
2022/05/17 11:14:23;;;;;;;;;;;25.80;59.60;;;;;;4937129;29;20371;-69
2022/05/17 11:16:57;;;;;;;;;;;25.80;59.60;;;;;;4937409;29;20335;-70
2022/05/17 11:19:26;;;;;;;;;;;25.80;60.30;;;;;;4936897;29;19924;-70
2022/05/17 11:21:55;;;;;;;;;;;25.90;59.60;;;;;;4936385;29;19930;-69
2022/05/17 11:24:20;;;;;;;;;;;25.90;58.80;;;;;;4935998;29;19922;-69
2022/05/17 11:26:56;;;;;;;;;;;25.90;57.40;;;;;;4936799;29;20459;-70
2022/05/17 11:29:27;;;;;;;;;;;25.90;56.90;;;;;;4937134;29;19919;-73
2022/05/17 11:31:53;;;;;;;;;;;25.90;57.30;;;;;;4936776;29;19915;-68
2022/05/17 11:34:22;;;;;;;;;;;25.80;54.10;;;;;;4936491;29;19958;-67
2022/05/17 11:36:48;;;;;;;;;;;25.80;56.40;;;;;;4951560;29;19963;-74
2022/05/17 11:39:32;;;;;;;;;;;25.80;55.70;;;;;;4936668;29;19958;-74
2022/05/17 11:42:08;;;;;;;;;;;25.80;55.70;;;;;;4937016;29;19914;-77
2022/05/17 11:44:41;;;;;;;;;;;25.90;56.20;;;;;;4936380;29;19962;-73
2022/05/17 11:47:26;;;;;;;;;;;25.90;56.00;;;;;;4936241;29;20010;-71
2022/05/17 11:49:52;;;;;;;;;;;25.90;54.80;;;;;;4936334;29;19958;-72
2022/05/17 11:52:22;;;;;;;;;;;25.80;54.10;;;;;;4936141;29;19969;-65
2022/05/17 11:54:49;;;;;;;;;;;25.80;55.70;;;;;;4937013;29;19993;-71
2022/05/17 11:57:17;;;;;;;;;;;25.80;55.70;;;;;;4920004;29;19987;-71
2022/05/17 11:59:52;;;;;;;;;;;25.90;55.70;;;;;;4936233;29;19917;-67
2022/05/17 12:02:18;;;;;;;;;;;26.00;54.10;;;;;;4938397;29;19917;-71
2022/05/17 12:04:44;;;;;;;;;;;26.00;53.90;;;;;;4936442;29;19981;-77
2022/05/17 12:07:27;;;;;;;;;;;25.90;55.30;;;;;;4940495;29;19911;-75
2022/05/17 12:09:55;;;;;;;;;;;26.00;54.60;;;;;;4935339;29;19915;-72
2022/05/17 12:12:36;;;;;;;;;;;26.00;54.00;;;;;;4936054;29;19919;-73
2022/05/17 12:15:03;;;;;;;;;;;26.00;53.60;;;;;;4936143;29;19915;-72
2022/05/17 12:17:44;;;;;;;;;;;26.00;54.10;;;;;;4936096;29;20295;-71
2022/05/17 12:20:12;;;;;;;;;;;26.00;54.00;;;;;;4936039;29;19954;-73
2022/05/17 12:22:56;;;;;;;;;;;26.00;54.50;;;;;;4934423;29;19948;-73
2022/05/17 12:25:29;;;;;;;;;;;26.00;53.70;;;;;;4935142;29;20294;-72
2022/05/17 12:27:55;;;;;;;;;;;26.00;53.80;;;;;;4935555;29;20409;-71
2022/05/17 12:33:16;;;;;;;;;;;26.10;54.10;;;;;;4935186;29;19925;-68
2022/05/17 12:35:42;;;;;;;;;;;26.00;53.60;;;;;;4935499;29;19911;-70
2022/05/17 12:43:36;;;;;;;;;;;26.20;52.90;;;;;;4936293;29;20426;-68
2022/05/17 12:46:10;;;;;;;;;;;26.20;53.30;;;;;;4935937;29;19915;-66
2022/05/17 12:48:37;;;;;;;;;;;26.20;53.20;;;;;;4918734;29;20370;-66
2022/05/17 12:51:05;;;;;;;;;;;26.20;52.90;;;;;;4935534;29;19922;-62
2022/05/17 12:53:45;;;;;;;;;;;26.20;53.40;;;;;;4935687;29;19919;-65
2022/05/17 12:56:28;;;;;;;;;;;26.20;52.60;;;;;;4935884;29;20336;-68
2022/05/17 12:58:54;;;;;;;;;;;26.20;53.10;;;;;;4935619;29;19917;-66
2022/05/17 13:01:24;;;;;;;;;;;26.20;53.50;;;;;;4935297;29;20014;-67
2022/05/17 13:03:52;;;;;;;;;;;26.20;52.60;;;;;;4935602;29;19911;-68
2022/05/17 13:06:19;;;;;;;;;;;26.20;53.00;;;;;;4936333;29;19911;-65
2022/05/17 13:08:44;;;;;;;;;;;26.20;52.80;;;;;;4941654;29;20270;-66
2022/05/17 13:11:18;;;;;;;;;;;26.20;53.50;;;;;;4945691;29;19915;-65
2022/05/17 13:13:44;;;;;;;;;;;26.10;53.50;;;;;;4944099;29;19918;-62
2022/05/17 13:16:10;;;;;;;;;;;26.20;54.00;;;;;;4940413;29;19910;-63
2022/05/17 13:18:40;;;;;;;;;;;26.20;54.10;;;;;;4943230;29;19914;-61
2022/05/17 13:21:11;;;;;;;;;;;26.20;53.70;;;;;;4934723;29;20530;-64
2022/05/17 13:23:37;;;;;;;;;;;26.30;53.70;;;;;;4932867;29;19915;-63
2022/05/17 13:26:03;;;;;;;;;;;26.30;52.40;;;;;;4934493;29;19923;-62
2022/05/17 13:28:31;;;;;;;;;;;26.30;52.50;;;;;;4934931;29;19918;-64
2022/05/17 13:31:09;;;;;;;;;;;26.30;53.60;;;;;;4921026;29;20227;-63
2022/05/17 13:33:37;;;;;;;;;;;26.20;53.60;;;;;;4938450;29;19985;-64
2022/05/17 13:36:04;;;;;;;;;;;26.30;53.30;;;;;;4938061;29;19922;-68
2022/05/17 13:38:30;;;;;;;;;;;26.30;54.00;;;;;;4938326;29;19914;-61
2022/05/17 13:40:57;;;;;;;;;;;26.30;53.10;;;;;;4922519;29;19911;-67
2022/05/17 13:43:22;;;;;;;;;;;26.30;53.00;;;;;;4948875;29;19911;-62
2022/05/17 13:45:57;;;;;;;;;;;26.30;53.10;;;;;;4946602;29;19911;-64
2022/05/17 13:48:23;;;;;;;;;;;26.30;53.00;;;;;;4945901;29;20275;-71
2022/05/17 13:50:57;;;;;;;;;;;26.30;51.80;;;;;;4947966;29;19914;-63
2022/05/17 13:53:22;;;;;;;;;;;26.30;52.10;;;;;;4940536;29;19970;-67
2022/05/17 13:55:48;;;;;;;;;;;26.20;51.90;;;;;;4937963;29;19937;-63
2022/05/17 13:58:14;;;;;;;;;;;26.30;52.00;;;;;;4939111;29;19965;-67
2022/05/17 14:00:57;;;;;;;;;;;26.30;52.00;;;;;;4939451;29;19935;-62
2022/05/17 14:03:23;;;;;;;;;;;26.30;50.60;;;;;;4938947;29;19911;-67
2022/05/17 14:05:52;;;;;;;;;;;26.30;51.80;;;;;;4938212;29;19982;-60
2022/05/17 14:13:53;;;;;;;;;;;26.50;51.20;;;;;;4937623;29;19926;-67
2022/05/17 14:16:20;;;;;;;;;;;26.50;52.20;;;;;;4937620;29;19994;-62
2022/05/17 14:18:46;;;;;;;;;;;26.50;51.90;;;;;;4937702;29;19915;-64
2022/05/17 14:21:12;;;;;;;;;;;26.50;51.70;;;;;;4937475;29;19910;-64
2022/05/17 14:23:38;;;;;;;;;;;26.60;52.40;;;;;;4937717;29;20363;-69
2022/05/17 14:26:05;;;;;;;;;;;26.60;53.20;;;;;;4939965;29;19970;-65
2022/05/17 14:28:31;;;;;;;;;;;26.60;53.80;;;;;;4947087;29;19915;-68
2022/05/17 14:30:57;;;;;;;;;;;26.50;54.50;;;;;;4946846;29;20363;-69
2022/05/17 14:33:23;;;;;;;;;;;26.50;56.00;;;;;;4945485;29;19923;-66
2022/05/17 14:35:52;;;;;;;;;;;26.50;55.60;;;;;;4947263;29;19949;-67
2022/05/17 14:38:18;;;;;;;;;;;26.50;54.00;;;;;;4939451;29;19915;-68
2022/05/17 14:40:45;;;;;;;;;;;26.50;54.10;;;;;;4936527;29;19942;-64
2022/05/17 14:43:11;;;;;;;;;;;26.60;54.50;;;;;;4941234;29;19934;-68
2022/05/17 14:45:37;;;;;;;;;;;26.50;56.10;;;;;;4947757;29;20351;-65
2022/05/17 14:48:03;;;;;;;;;;;26.50;55.70;;;;;;4947169;29;19911;-69